createdAt,value
2022-09-26T00:03:02.197Z,100.00
2022-09-26T00:06:09.900Z,100.00
2022-09-26T00:09:18.528Z,100.00
2022-09-26T00:12:25.043Z,100.00
2022-09-26T00:15:31.411Z,100.00
2022-09-26T00:18:38.250Z,100.00
2022-09-26T00:21:44.972Z,100.00
2022-09-26T00:24:54.048Z,100.00
2022-09-26T00:28:00.331Z,100.00
2022-09-26T00:31:08.177Z,100.00
2022-09-26T00:34:15.659Z,100.00
2022-09-26T00:37:21.854Z,100.00
2022-09-26T00:40:30.713Z,100.00
2022-09-26T00:43:39.665Z,100.00
2022-09-26T00:46:49.427Z,100.00
2022-09-26T00:49:59.871Z,100.00
2022-09-26T00:53:10.916Z,100.00
2022-09-26T00:56:22.566Z,100.00
2022-09-26T00:59:32.490Z,100.00
2022-09-26T01:02:40.293Z,100.00
2022-09-26T01:05:47.510Z,100.00
2022-09-26T01:08:58.383Z,100.00
2022-09-26T01:12:08.655Z,100.00
2022-09-26T01:15:14.974Z,100.00
2022-09-26T01:18:21.621Z,100.00
2022-09-26T01:21:48.474Z,100.00
2022-09-26T01:25:08.928Z,100.00
2022-09-26T01:28:34.192Z,100.00
2022-09-26T01:32:09.678Z,100.00
2022-09-26T01:35:41.532Z,100.00
2022-09-26T01:39:01.176Z,100.00
2022-09-26T01:42:18.111Z,100.00
2022-09-26T01:45:30.653Z,100.00
2022-09-26T01:48:45.867Z,100.00
2022-09-26T01:51:59.287Z,100.00
2022-09-26T01:55:10.168Z,100.00
2022-09-26T01:58:22.113Z,100.00
2022-09-26T02:01:34.332Z,100.00
2022-09-26T02:04:44.739Z,100.00
2022-09-26T02:07:56.164Z,100.00
2022-09-26T02:11:07.662Z,100.00
2022-09-26T02:14:18.167Z,100.00
2022-09-26T02:17:32.041Z,100.00
2022-09-26T02:20:43.135Z,100.00
2022-09-26T02:23:51.039Z,100.00
2022-09-26T02:26:57.249Z,100.00
2022-09-26T02:30:03.467Z,100.00
2022-09-26T02:33:09.876Z,100.00
2022-09-26T02:36:19.888Z,100.00
2022-09-26T02:39:26.465Z,100.00
2022-09-26T02:42:37.217Z,100.00
2022-09-26T02:45:48.679Z,100.00
2022-09-26T02:49:08.687Z,100.00
2022-09-26T02:52:29.940Z,100.00
2022-09-26T02:55:46.266Z,100.00
2022-09-26T02:58:59.810Z,100.00
2022-09-26T03:02:15.893Z,100.00
2022-09-26T03:05:24.696Z,100.00
2022-09-26T03:08:38.643Z,100.00
2022-09-26T03:11:45.725Z,100.00
2022-09-26T03:14:57.876Z,100.00
2022-09-26T03:18:13.075Z,100.00
2022-09-26T03:21:19.649Z,100.00
2022-09-26T03:24:28.031Z,100.00
2022-09-26T03:27:36.068Z,100.00
2022-09-26T03:30:42.115Z,100.00
2022-09-26T03:33:48.615Z,100.00
2022-09-26T03:36:55.671Z,100.00
2022-09-26T03:40:04.110Z,100.00
2022-09-26T03:43:11.179Z,100.00
2022-09-26T03:46:17.237Z,100.00
2022-09-26T03:49:23.340Z,100.00
2022-09-26T03:52:31.123Z,100.00
2022-09-26T03:55:38.578Z,100.00
2022-09-26T03:58:44.818Z,100.00
2022-09-26T04:01:51.236Z,100.00
2022-09-26T04:04:57.506Z,100.00
2022-09-26T04:08:04.155Z,100.00
2022-09-26T04:11:13.626Z,100.00
2022-09-26T04:14:20.367Z,100.00
2022-09-26T04:17:26.847Z,100.00
2022-09-26T04:20:33.143Z,100.00
2022-09-26T04:23:41.743Z,100.00
2022-09-26T04:26:49.511Z,100.00
2022-09-26T04:29:57.292Z,100.00
2022-09-26T04:33:03.574Z,100.00
2022-09-26T04:36:12.231Z,100.00
2022-09-26T04:39:18.217Z,100.00
2022-09-26T04:42:26.093Z,100.00
2022-09-26T04:45:32.172Z,100.00
2022-09-26T04:48:38.540Z,100.00
2022-09-26T04:51:44.980Z,100.00
2022-09-26T04:54:51.190Z,100.00
2022-09-26T04:57:58.709Z,100.00
2022-09-26T05:01:06.457Z,100.00
2022-09-26T05:04:13.530Z,100.00
2022-09-26T05:07:19.912Z,100.00
2022-09-26T05:10:26.000Z,100.00
2022-09-26T05:13:33.750Z,100.00
2022-09-26T05:16:40.292Z,100.00
2022-09-26T05:19:46.349Z,100.00
2022-09-26T05:22:52.789Z,100.00
2022-09-26T05:26:16.735Z,100.00
2022-09-26T05:29:24.699Z,100.00
2022-09-26T05:32:31.160Z,100.00
2022-09-26T05:35:37.523Z,100.00
2022-09-26T05:38:43.923Z,100.00
2022-09-26T05:41:49.757Z,100.00
2022-09-26T05:44:57.663Z,100.00
2022-09-26T05:48:03.753Z,100.00
2022-09-26T05:51:12.554Z,100.00
2022-09-26T05:54:18.943Z,100.00
2022-09-26T05:57:25.477Z,100.00
2022-09-26T06:00:34.062Z,100.00
2022-09-26T06:03:44.153Z,100.00
2022-09-26T06:06:51.407Z,100.00
2022-09-26T06:09:57.403Z,100.00
2022-09-26T06:13:04.139Z,100.00
2022-09-26T06:16:14.748Z,100.00
2022-09-26T06:19:23.091Z,100.00
2022-09-26T06:22:29.746Z,100.00
2022-09-26T06:25:35.895Z,100.00
2022-09-26T06:28:42.175Z,100.00
2022-09-26T06:31:50.770Z,100.00
2022-09-26T06:34:57.159Z,100.00
2022-09-26T06:38:05.075Z,97.91
2022-09-26T06:41:11.560Z,96.80
2022-09-26T06:44:18.176Z,95.20
2022-09-26T06:47:26.100Z,94.27
2022-09-26T06:50:32.475Z,96.54
2022-09-26T06:53:39.264Z,96.68
2022-09-26T06:56:45.594Z,92.52
2022-09-26T06:59:51.641Z,91.83
2022-09-26T07:03:00.916Z,91.60
2022-09-26T07:06:07.599Z,97.74
2022-09-26T07:09:13.810Z,98.39
2022-09-26T07:12:19.982Z,94.75
2022-09-26T07:15:30.893Z,91.07
2022-09-26T07:18:39.702Z,97.85
2022-09-26T07:21:46.432Z,91.88
2022-09-26T07:24:52.787Z,91.86
2022-09-26T07:27:59.710Z,88.63
2022-09-26T07:31:07.681Z,89.74
2022-09-26T07:34:18.277Z,91.54
2022-09-26T07:37:25.371Z,82.69
2022-09-26T07:40:31.495Z,78.36
2022-09-26T07:47:21.236Z,80.93
2022-09-26T07:50:28.848Z,77.88
2022-09-26T07:53:35.032Z,75.73
2022-09-26T07:56:43.806Z,79.11
2022-09-26T07:59:50.627Z,75.92
2022-09-26T08:03:02.165Z,75.60
2022-09-26T08:06:10.659Z,74.98
2022-09-26T08:09:16.953Z,73.73
2022-09-26T08:12:23.375Z,70.98
2022-09-26T08:15:29.871Z,72.12
2022-09-26T08:18:36.330Z,72.68
2022-09-26T08:21:44.428Z,73.38
2022-09-26T08:24:51.027Z,71.06
2022-09-26T08:27:59.644Z,71.20
2022-09-26T08:31:07.202Z,71.53
2022-09-26T08:34:13.690Z,73.40
2022-09-26T08:37:21.801Z,68.29
2022-09-26T08:40:34.363Z,66.70
2022-09-26T08:44:13.101Z,65.62
2022-09-26T08:47:33.805Z,66.03
2022-09-26T08:50:47.862Z,64.35
2022-09-26T08:54:02.440Z,65.02
2022-09-26T08:57:22.561Z,62.15
2022-09-26T09:00:38.833Z,62.75
2022-09-26T09:03:52.951Z,59.26
2022-09-26T09:07:05.635Z,61.02
2022-09-26T09:10:19.415Z,59.91
2022-09-26T09:13:39.637Z,63.37
2022-09-26T09:16:58.608Z,62.14
2022-09-26T09:20:16.224Z,61.75
2022-09-26T09:23:35.830Z,62.51
2022-09-26T09:30:23.950Z,59.54
2022-09-26T09:33:35.223Z,61.34
2022-09-26T09:36:45.341Z,60.03
2022-09-26T09:39:52.503Z,59.14
2022-09-26T09:43:05.375Z,57.47
2022-09-26T09:46:18.112Z,54.80
2022-09-26T09:49:25.813Z,54.06
2022-09-26T09:52:52.340Z,54.79
2022-09-26T09:56:10.671Z,54.08
2022-09-26T09:59:42.289Z,52.22
2022-09-26T10:02:55.009Z,52.01
2022-09-26T10:06:03.162Z,52.08
2022-09-26T10:09:38.674Z,50.56
2022-09-26T10:12:45.848Z,50.85
2022-09-26T10:15:59.085Z,48.20
2022-09-26T10:19:07.311Z,49.00
2022-09-26T10:22:24.301Z,46.53
2022-09-26T10:25:30.592Z,48.06
2022-09-26T10:28:45.031Z,47.88
2022-09-26T10:31:58.719Z,47.55
2022-09-26T10:35:08.923Z,48.01
2022-09-26T10:38:21.959Z,49.41
2022-09-26T10:41:27.266Z,48.84
2022-09-26T10:44:35.038Z,51.73
2022-09-26T10:47:46.267Z,50.88
2022-09-26T10:50:55.795Z,50.21
2022-09-26T10:54:06.414Z,50.58
2022-09-26T10:57:23.205Z,49.71
2022-09-26T11:00:38.903Z,50.31
2022-09-26T11:03:47.865Z,49.51
2022-09-26T11:06:54.459Z,48.81
2022-09-26T11:10:04.452Z,50.77
2022-09-26T11:13:18.039Z,49.02
2022-09-26T11:16:24.377Z,49.78
2022-09-26T11:19:40.807Z,50.53
2022-09-26T11:22:54.487Z,48.51
2022-09-26T11:26:17.080Z,48.36
2022-09-26T11:29:38.654Z,45.12
2022-09-26T11:32:48.720Z,45.88
2022-09-26T11:36:11.051Z,46.57
2022-09-26T11:39:37.360Z,44.95
2022-09-26T11:42:55.598Z,47.30
2022-09-26T11:46:18.684Z,47.48
2022-09-26T11:49:39.745Z,45.26
2022-09-26T11:53:02.049Z,46.06
2022-09-26T11:56:32.897Z,46.33
2022-09-26T11:59:59.672Z,44.95
2022-09-26T12:03:30.563Z,43.27
2022-09-26T12:06:49.811Z,43.68
2022-09-26T12:10:13.143Z,45.52
2022-09-26T12:13:29.953Z,46.31
2022-09-26T12:16:46.739Z,47.63
2022-09-26T12:20:02.518Z,48.63
2022-09-26T12:23:20.671Z,46.93
2022-09-26T12:26:36.775Z,45.08
2022-09-26T12:29:49.483Z,43.79
2022-09-26T12:33:22.655Z,44.17
2022-09-26T12:36:40.535Z,45.22
2022-09-26T12:40:10.365Z,45.18
2022-09-26T12:43:50.635Z,45.50
2022-09-26T12:47:19.718Z,45.77
2022-09-26T12:50:37.762Z,47.60
2022-09-26T12:54:10.627Z,48.27
2022-09-26T12:57:28.301Z,45.56
2022-09-26T13:00:44.429Z,44.68
2022-09-26T13:04:25.120Z,47.01
2022-09-26T13:07:43.466Z,48.86
2022-09-26T13:11:01.258Z,49.60
2022-09-26T13:14:49.132Z,48.64
2022-09-26T13:18:02.662Z,51.62
2022-09-26T13:21:14.000Z,49.33
2022-09-26T13:24:25.700Z,50.63
2022-09-26T13:27:38.394Z,51.33
2022-09-26T13:30:50.212Z,50.62
2022-09-26T13:34:01.418Z,50.75
2022-09-26T13:37:28.687Z,51.16
2022-09-26T13:40:42.091Z,49.85
2022-09-26T13:44:03.591Z,49.79
2022-09-26T13:47:18.938Z,51.10
2022-09-26T13:50:35.427Z,51.59
2022-09-26T13:53:50.231Z,50.73
2022-09-26T13:56:56.328Z,53.59
2022-09-26T14:00:08.044Z,54.42
2022-09-26T14:03:44.588Z,52.21
2022-09-26T14:07:32.982Z,53.34
2022-09-26T14:10:42.231Z,55.83
2022-09-26T14:13:50.229Z,52.98
2022-09-26T14:16:58.325Z,56.47
2022-09-26T14:20:05.927Z,54.73
2022-09-26T14:23:35.751Z,54.17
2022-09-26T14:26:44.364Z,51.60
2022-09-26T14:29:54.456Z,53.91
2022-09-26T14:33:03.902Z,51.68
2022-09-26T14:36:26.144Z,54.28
2022-09-26T14:39:39.669Z,57.68
2022-09-26T14:42:54.076Z,56.80
2022-09-26T14:46:05.204Z,57.23
2022-09-26T14:49:23.763Z,56.51
2022-09-26T14:52:30.964Z,54.19
2022-09-26T14:55:58.519Z,54.64
2022-09-26T14:59:44.254Z,53.87
2022-09-26T15:02:50.524Z,54.70
2022-09-26T15:05:57.100Z,54.90
2022-09-26T15:09:10.673Z,53.87
2022-09-26T15:12:23.777Z,55.33
2022-09-26T15:15:42.961Z,55.92
2022-09-26T15:18:54.314Z,57.39
2022-09-26T15:22:03.026Z,59.07
2022-09-26T15:25:10.884Z,57.77
2022-09-26T15:28:18.893Z,57.89
2022-09-26T15:31:28.249Z,59.76
2022-09-26T15:34:37.181Z,59.30
2022-09-26T15:37:44.209Z,59.19
2022-09-26T15:41:01.547Z,62.18
2022-09-26T15:44:19.554Z,61.12
2022-09-26T15:47:41.839Z,60.97
2022-09-26T15:50:50.334Z,62.88
2022-09-26T15:54:00.579Z,62.88
2022-09-26T15:57:08.171Z,65.42
2022-09-26T16:00:17.025Z,68.83
2022-09-26T16:03:38.967Z,66.55
2022-09-26T16:06:54.350Z,66.55
2022-09-26T16:10:01.038Z,68.12
2022-09-26T16:13:23.990Z,68.57
2022-09-26T16:16:35.734Z,72.20
2022-09-26T16:19:47.683Z,72.24
2022-09-26T16:23:00.320Z,75.24
2022-09-26T16:26:26.187Z,74.03
2022-09-26T16:29:34.835Z,73.30
2022-09-26T16:32:42.386Z,74.75
2022-09-26T16:35:49.544Z,77.50
2022-09-26T16:38:58.947Z,75.78
2022-09-26T16:42:16.279Z,78.10
2022-09-26T16:45:22.850Z,77.89
2022-09-26T16:48:41.950Z,77.07
2022-09-26T16:52:27.051Z,78.62
2022-09-26T16:55:37.626Z,77.67
2022-09-26T16:58:50.303Z,78.91
2022-09-26T17:02:00.112Z,75.16
2022-09-26T17:05:16.924Z,80.59
2022-09-26T17:08:23.415Z,79.95
2022-09-26T17:11:30.164Z,82.91
2022-09-26T17:14:40.760Z,83.00
2022-09-26T17:17:47.185Z,83.64
2022-09-26T17:20:54.352Z,88.08
2022-09-26T17:24:00.891Z,85.05
2022-09-26T17:27:09.048Z,85.12
2022-09-26T17:30:18.314Z,85.56
2022-09-26T17:33:30.371Z,88.26
2022-09-26T17:36:39.371Z,90.00
2022-09-26T17:39:45.794Z,89.90
2022-09-26T17:42:55.436Z,91.58
2022-09-26T17:46:02.265Z,91.42
2022-09-26T17:49:14.047Z,90.96
2022-09-26T17:52:27.387Z,86.55
2022-09-26T17:55:33.672Z,84.73
2022-09-26T17:58:44.049Z,87.23
2022-09-26T18:01:54.678Z,84.35
2022-09-26T18:05:04.553Z,88.17
2022-09-26T18:08:19.330Z,87.98
2022-09-26T18:11:25.558Z,89.91
2022-09-26T18:14:35.280Z,89.76
2022-09-26T18:17:42.064Z,93.41
2022-09-26T18:20:49.339Z,93.49
2022-09-26T18:24:01.038Z,97.39
2022-09-26T18:27:07.962Z,98.53
2022-09-26T18:30:16.209Z,100.00
2022-09-26T18:33:23.164Z,98.88
2022-09-26T18:36:31.612Z,100.00
2022-09-26T18:39:39.827Z,100.00
2022-09-26T18:42:46.919Z,100.00
2022-09-26T18:45:54.283Z,100.00
2022-09-26T18:49:06.536Z,100.00
2022-09-26T18:52:16.148Z,100.00
2022-09-26T18:55:43.418Z,100.00
2022-09-26T18:58:50.762Z,100.00
2022-09-26T19:01:59.810Z,100.00
2022-09-26T19:05:08.636Z,100.00
2022-09-26T19:08:33.266Z,100.00
2022-09-26T19:11:41.932Z,100.00
2022-09-26T19:14:48.681Z,100.00
2022-09-26T19:17:55.149Z,100.00
2022-09-26T19:21:02.157Z,100.00
2022-09-26T19:24:20.435Z,100.00
2022-09-26T19:27:29.850Z,100.00
2022-09-26T19:30:36.285Z,100.00
2022-09-26T19:33:45.454Z,100.00
2022-09-26T19:36:52.446Z,100.00
2022-09-26T19:39:58.756Z,100.00
2022-09-26T19:43:06.271Z,100.00
2022-09-26T19:46:18.461Z,100.00
2022-09-26T19:49:27.151Z,100.00
2022-09-26T19:52:33.604Z,100.00
2022-09-26T19:55:40.625Z,100.00
2022-09-26T19:58:48.690Z,100.00
2022-09-26T20:01:55.223Z,100.00
2022-09-26T20:05:01.388Z,100.00
2022-09-26T20:08:09.627Z,100.00
2022-09-26T20:11:16.589Z,100.00
2022-09-26T20:14:27.293Z,100.00
2022-09-26T20:17:34.294Z,100.00
2022-09-26T20:20:42.369Z,100.00
2022-09-26T20:23:48.805Z,100.00
2022-09-26T20:26:56.467Z,100.00
2022-09-26T20:30:21.621Z,100.00
2022-09-26T20:33:28.152Z,100.00
2022-09-26T20:36:36.141Z,100.00
2022-09-26T20:39:43.348Z,100.00
2022-09-26T20:42:57.037Z,100.00
2022-09-26T20:46:06.703Z,100.00
2022-09-26T20:49:17.473Z,100.00
2022-09-26T20:52:26.151Z,100.00
2022-09-26T20:55:33.423Z,100.00
2022-09-26T20:58:39.544Z,100.00
2022-09-26T21:01:47.546Z,100.00
2022-09-26T21:04:55.011Z,100.00
2022-09-26T21:08:01.776Z,100.00
2022-09-26T21:11:11.576Z,100.00
2022-09-26T21:14:18.299Z,100.00
2022-09-26T21:17:29.312Z,100.00
2022-09-26T21:20:36.108Z,100.00
2022-09-26T21:23:44.239Z,100.00
2022-09-26T21:26:50.852Z,100.00
2022-09-26T21:29:57.353Z,100.00
2022-09-26T21:33:05.212Z,100.00
2022-09-26T21:36:11.655Z,100.00
2022-09-26T21:39:19.633Z,100.00
2022-09-26T21:42:27.359Z,100.00
2022-09-26T21:45:34.043Z,100.00
2022-09-26T21:48:41.625Z,100.00
2022-09-26T21:51:51.840Z,100.00
2022-09-26T21:55:01.038Z,100.00
2022-09-26T21:58:13.907Z,100.00
2022-09-26T22:01:20.550Z,100.00
2022-09-26T22:04:28.183Z,100.00
2022-09-26T22:07:34.067Z,100.00
2022-09-26T22:10:40.380Z,100.00
2022-09-26T22:13:46.614Z,100.00
2022-09-26T22:16:54.800Z,100.00
2022-09-26T22:20:02.464Z,100.00
2022-09-26T22:23:08.839Z,100.00
2022-09-26T22:26:15.043Z,100.00
2022-09-26T22:29:21.547Z,100.00
2022-09-26T22:32:28.308Z,100.00
2022-09-26T22:35:36.601Z,100.00
2022-09-26T22:38:43.096Z,100.00
2022-09-26T22:41:49.273Z,100.00
2022-09-26T22:44:55.807Z,100.00
2022-09-26T22:48:02.288Z,100.00
2022-09-26T22:51:10.584Z,100.00
2022-09-26T22:54:17.227Z,100.00
2022-09-26T22:57:23.585Z,100.00
2022-09-26T23:00:29.884Z,100.00
2022-09-26T23:03:36.413Z,100.00
2022-09-26T23:06:44.885Z,100.00
2022-09-26T23:09:51.033Z,100.00
2022-09-26T23:12:58.440Z,100.00
2022-09-26T23:16:06.446Z,100.00
2022-09-26T23:19:12.546Z,100.00
2022-09-26T23:22:19.907Z,100.00
2022-09-26T23:25:26.183Z,100.00
2022-09-26T23:28:33.844Z,100.00
2022-09-26T23:31:40.064Z,100.00
2022-09-26T23:34:46.304Z,100.00
2022-09-26T23:37:53.900Z,100.00
2022-09-26T23:41:00.137Z,100.00
2022-09-26T23:44:06.414Z,100.00
2022-09-26T23:47:12.650Z,100.00
2022-09-26T23:50:19.104Z,100.00
2022-09-26T23:53:26.964Z,100.00
2022-09-26T23:56:32.993Z,100.00
2022-09-26T23:59:39.474Z,100.00
